This is the latest recevied weather packets stored in our database for station/object DM3FAM-13. If no packets are shown the sender has not sent any weather packets the latest 10 day(s).
| Time | Temp. | Humidity | Pressure | Rain* | Wind** | Luminosity | Snow |
|---|---|---|---|---|---|---|---|
| 1777665030 | 10.56° C | 71% | 1023.4 hPa | 0 mm | - | 0 W/m² | - |
| 1777663830 | 10.56° C | 73% | 1023.3 hPa | 0 mm | - | 0 W/m² | - |
| 1777663230 | 11.11° C | 72% | 1023.3 hPa | 0 mm | - | 0 W/m² | - |
| 1777661431 | 12.78° C | 67% | 1023.1 hPa | 0 mm | - | 1 W/m² | - |
| 1777660230 | 13.89° C | 65% | 1022.8 hPa | 0 mm | - | 5 W/m² | - |
| 1777659630 | 14.44° C | 63% | 1022.7 hPa | 0 mm | - | 8 W/m² | - |
| 1777659030 | 15° C | 63% | 1022.6 hPa | 0 mm | - | 10 W/m² | - |
| 1777656631 | 16.11° C | 59% | 1022.3 hPa | 0 mm | - | 19 W/m² | - |
| 1777656030 | 17.22° C | 58% | 1022.3 hPa | 0 mm | - | 21 W/m² | - |
| 1777655430 | 17.78° C | 55% | 1022.3 hPa | 0 mm | - | 22 W/m² | - |
| 1777654830 | 18.33° C | 51% | 1022.2 hPa | 0 mm | - | 24 W/m² | - |
| 1777653630 | 20° C | 48% | 1022.2 hPa | 0 mm | - | 31 W/m² | - |
| 1777653030 | 21.67° C | 40% | 1022.3 hPa | 0 mm | - | 41 W/m² | - |
| 1777652429 | 22.22° C | 36% | 1022.3 hPa | 0 mm | - | 94 W/m² | - |
| 1777651830 | 23.89° C | 34% | 1022.3 hPa | 0 mm | - | 214 W/m² | - |
| 1777651230 | 24.44° C | 33% | 1022.3 hPa | 0 mm | - | 255 W/m² | - |
| 1777650630 | 24.44° C | 32% | 1022.3 hPa | 0 mm | - | 290 W/m² | - |
| 1777650030 | 25° C | 31% | 1022.4 hPa | 0 mm | - | 309 W/m² | - |
| 1777649431 | 25° C | 32% | 1022.4 hPa | 0 mm | - | 334 W/m² | - |
| 1777648830 | 24.44° C | 32% | 1022.5 hPa | 0 mm | - | 364 W/m² | - |
| 1777648230 | 24.44° C | 32% | 1022.5 hPa | 0 mm | - | 430 W/m² | - |
| 1777647031 | 24.44° C | 31% | 1022.7 hPa | 0 mm | - | 473 W/m² | - |
| 1777645831 | 24.44° C | 32% | 1022.8 hPa | 0 mm | - | 485 W/m² | - |
| 1777645230 | 25° C | 30% | 1022.9 hPa | 0 mm | - | 515 W/m² | - |
| 1777644630 | 24.44° C | 32% | 1023 hPa | 0 mm | - | 566 W/m² | - |
* Rain latest hour (hover to see other rain measurements)
** Current wind speed in m/s (hover to see current wind gust speed)